Time,TemperatureF,DewpointF,PressureIn,WindDirection,WindDirectionDegrees,WindSpeedMPH,WindSpeedGustMPH,Humidity,HourlyPrecipIn,Conditions,Clouds,dailyrainin,SolarRadiationWatts/m^2,SoftwareType,DateUTC
2013-12-08 00:00:00,-8.0,-16.0,-100.00,ESE,117,0.0,2.0,67,-99.99,,,0.00,0.000000,,2013-12-08 07:00:00,
2013-12-08 00:42:00,-8.0,-16.0,-100.00,ESE,117,0.0,2.0,67,-99.99,,,0.00,0.000000,,2013-12-08 07:42:00,
2013-12-08 00:53:00,-8.0,-16.0,-100.00,ESE,117,0.0,2.0,67,-99.99,,,0.00,0.000000,,2013-12-08 07:53:00,
2013-12-08 01:00:00,-9.0,-16.0,-100.00,North,0,0.0,0.0,69,-99.99,,,0.00,0.000000,,2013-12-08 08:00:00,
2013-12-08 01:42:00,-9.0,-16.0,-100.00,North,0,0.0,0.0,69,-99.99,,,0.00,0.000000,,2013-12-08 08:42:00,
2013-12-08 01:52:00,-9.0,-16.0,-100.00,North,0,0.0,0.0,69,-99.99,,,0.00,0.000000,,2013-12-08 08:52:00,
2013-12-08 02:00:00,-9.0,-16.0,-100.00,ENE,59,0.0,1.0,68,-99.99,,,0.00,0.000000,,2013-12-08 09:00:00,
2013-12-08 02:53:00,-9.0,-16.0,-100.00,ENE,59,0.0,1.0,68,-99.99,,,0.00,0.000000,,2013-12-08 09:53:00,
2013-12-08 04:00:00,-11.0,-17.0,-100.00,North,0,0.0,0.0,72,-99.99,,,0.00,0.000000,,2013-12-08 11:00:00,
2013-12-08 04:43:00,-11.0,-17.0,-100.00,North,0,0.0,0.0,72,-99.99,,,0.00,0.000000,,2013-12-08 11:43:00,
2013-12-08 04:52:00,-11.0,-17.0,-100.00,North,0,0.0,0.0,72,-99.99,,,0.00,0.000000,,2013-12-08 11:52:00,
2013-12-08 05:00:00,-8.0,-15.0,-100.00,North,0,0.0,0.0,72,-99.99,,,0.00,0.000000,,2013-12-08 12:00:00,
2013-12-08 05:42:00,-8.0,-15.0,-100.00,North,0,0.0,0.0,72,-99.99,,,0.00,0.000000,,2013-12-08 12:42:00,
2013-12-08 05:52:00,-8.0,-15.0,-100.00,North,0,0.0,0.0,72,-99.99,,,0.00,0.000000,,2013-12-08 12:52:00,
2013-12-08 06:00:00,-7.0,-14.0,-100.00,NNW,342,0.0,2.0,72,-99.99,,,0.00,0.000000,,2013-12-08 13:00:00,
2013-12-08 06:42:00,-7.0,-14.0,-100.00,NNW,342,0.0,2.0,72,-99.99,,,0.00,0.000000,,2013-12-08 13:42:00,
2013-12-08 06:52:00,-7.0,-14.0,-100.00,NNW,342,0.0,2.0,72,-99.99,,,0.00,0.000000,,2013-12-08 13:52:00,
2013-12-08 07:00:00,-7.0,-13.0,-100.00,North,0,0.0,0.0,72,-99.99,,,0.00,0.000000,,2013-12-08 14:00:00,
2013-12-08 07:42:00,-7.0,-13.0,-100.00,North,0,0.0,0.0,72,-99.99,,,0.00,0.000000,,2013-12-08 14:42:00,
2013-12-08 07:52:00,-7.0,-13.0,-100.00,North,0,0.0,0.0,72,-99.99,,,0.00,0.000000,,2013-12-08 14:52:00,
2013-12-08 08:00:00,-6.0,-12.0,-100.00,NNE,20,0.0,2.0,75,-99.99,,,0.00,0.460000,,2013-12-08 15:00:00,
2013-12-08 08:43:00,-6.0,-12.0,-100.00,NNE,20,0.0,2.0,75,-99.99,,,0.00,0.460000,,2013-12-08 15:43:00,
2013-12-08 08:54:00,-6.0,-12.0,-100.00,NNE,20,0.0,2.0,75,-99.99,,,0.00,0.460000,,2013-12-08 15:54:00,
2013-12-08 09:00:00,-5.0,-12.0,-100.00,WNW,283,0.0,2.0,72,-99.99,,,0.00,24.410000,,2013-12-08 16:00:00,
2013-12-08 09:43:00,-5.0,-12.0,-100.00,WNW,283,0.0,2.0,72,-99.99,,,0.00,24.410000,,2013-12-08 16:43:00,
2013-12-08 09:53:00,-5.0,-12.0,-100.00,WNW,283,0.0,2.0,72,-99.99,,,0.00,24.410000,,2013-12-08 16:53:00,
2013-12-08 10:00:00,-3.0,-11.0,-100.00,SE,144,0.0,2.0,67,-99.99,,,0.00,100.529999,,2013-12-08 17:00:00,
2013-12-08 10:42:00,-3.0,-11.0,-100.00,SE,144,0.0,2.0,67,-99.99,,,0.00,100.529999,,2013-12-08 17:42:00,
2013-12-08 10:52:00,-3.0,-11.0,-100.00,SE,144,0.0,2.0,67,-99.99,,,0.00,100.529999,,2013-12-08 17:52:00,
2013-12-08 11:00:00,-1.0,-9.0,-100.00,NW,324,0.0,2.0,69,-99.99,,,0.00,135.860001,,2013-12-08 18:00:00,
2013-12-08 11:52:00,-1.0,-9.0,-100.00,NW,324,0.0,2.0,69,-99.99,,,0.00,135.860001,,2013-12-08 18:52:00,
2013-12-08 12:00:00,0.0,-8.0,-100.00,SSE,154,0.0,2.0,66,-99.99,,,0.00,184.910004,,2013-12-08 19:00:00,
2013-12-08 12:42:00,0.0,-8.0,-100.00,SSE,154,0.0,2.0,66,-99.99,,,0.00,184.910004,,2013-12-08 19:42:00,
2013-12-08 12:52:00,0.0,-8.0,-100.00,SSE,154,0.0,2.0,66,-99.99,,,0.00,184.910004,,2013-12-08 19:52:00,
2013-12-08 13:00:00,1.0,-8.0,-100.00,NNW,332,1.0,3.0,63,-99.99,,,0.00,168.750000,,2013-12-08 20:00:00,
2013-12-08 13:42:00,1.0,-8.0,-100.00,NNW,332,1.0,3.0,63,-99.99,,,0.00,168.750000,,2013-12-08 20:42:00,
2013-12-08 13:52:00,1.0,-8.0,-100.00,NNW,332,1.0,3.0,63,-99.99,,,0.00,168.750000,,2013-12-08 20:52:00,
2013-12-08 14:00:00,2.0,-6.0,-100.00,NNW,327,1.0,4.0,70,-99.99,,,0.00,126.910004,,2013-12-08 21:00:00,
2013-12-08 14:43:00,2.0,-6.0,-100.00,NNW,327,1.0,4.0,70,-99.99,,,0.00,126.910004,,2013-12-08 21:43:00,
2013-12-08 14:53:00,2.0,-6.0,-100.00,NNW,327,1.0,4.0,70,-99.99,,,0.00,126.910004,,2013-12-08 21:53:00,
2013-12-08 15:00:00,2.0,-5.0,-100.00,NNE,28,0.0,1.0,71,-99.99,,,0.00,98.440002,,2013-12-08 22:00:00,
2013-12-08 15:53:00,2.0,-5.0,-100.00,NNE,28,0.0,1.0,71,-99.99,,,0.00,98.440002,,2013-12-08 22:53:00,
2013-12-08 16:00:00,3.0,-5.0,-100.00,West,273,1.0,2.0,70,-99.99,,,0.00,50.209999,,2013-12-08 23:00:00,
2013-12-08 16:42:00,3.0,-5.0,-100.00,West,273,1.0,2.0,70,-99.99,,,0.00,50.209999,,2013-12-08 23:42:00,
2013-12-08 16:53:00,3.0,-5.0,-100.00,West,273,1.0,2.0,70,-99.99,,,0.00,50.209999,,2013-12-08 23:53:00,
2013-12-08 17:00:00,0.0,-6.0,-100.00,North,0,0.0,0.0,75,-99.99,,,0.00,3.490000,,2013-12-09 00:00:00,
2013-12-08 17:42:00,0.0,-6.0,-100.00,North,0,0.0,0.0,75,-99.99,,,0.00,3.490000,,2013-12-09 00:42:00,
2013-12-08 17:52:00,0.0,-6.0,-100.00,North,0,0.0,0.0,75,-99.99,,,0.00,3.490000,,2013-12-09 00:52:00,
2013-12-08 18:00:00,-6.0,-11.0,-100.00,East,94,3.0,5.0,75,-99.99,,,0.00,0.000000,,2013-12-09 01:00:00,
2013-12-08 18:52:00,-6.0,-11.0,-100.00,East,94,3.0,5.0,75,-99.99,,,0.00,0.000000,,2013-12-09 01:52:00,
2013-12-08 19:42:00,-7.0,-13.0,-100.00,ESE,121,0.0,0.0,73,-99.99,,,0.00,0.000000,,2013-12-09 02:42:00,
2013-12-08 20:00:00,-7.0,-13.0,-100.00,ESE,109,0.0,3.0,73,-99.99,,,0.00,0.000000,,2013-12-09 03:00:00,
2013-12-08 20:43:00,-7.0,-13.0,-100.00,ESE,109,0.0,3.0,73,-99.99,,,0.00,0.000000,,2013-12-09 03:43:00,
2013-12-08 20:53:00,-7.0,-13.0,-100.00,ESE,109,0.0,3.0,73,-99.99,,,0.00,0.000000,,2013-12-09 03:53:00,
2013-12-08 21:00:00,-8.0,-15.0,-100.00,SSW,197,0.0,0.0,71,-99.99,,,0.00,0.000000,,2013-12-09 04:00:00,
2013-12-08 21:43:00,-8.0,-15.0,-100.00,SSW,197,0.0,0.0,71,-99.99,,,0.00,0.000000,,2013-12-09 04:43:00,
2013-12-08 21:53:00,-8.0,-15.0,-100.00,SSW,197,0.0,0.0,71,-99.99,,,0.00,0.000000,,2013-12-09 04:53:00,
2013-12-08 22:00:00,-6.0,-12.0,-100.00,North,0,0.0,0.0,75,-99.99,,,0.00,0.000000,,2013-12-09 05:00:00,
2013-12-08 22:42:00,-6.0,-12.0,-100.00,North,0,0.0,0.0,75,-99.99,,,0.00,0.000000,,2013-12-09 05:42:00,
2013-12-08 22:53:00,-6.0,-12.0,-100.00,North,0,0.0,0.0,75,-99.99,,,0.00,0.000000,,2013-12-09 05:53:00,
2013-12-08 23:00:00,-7.0,-13.0,-100.00,ESE,109,0.0,3.0,74,-99.99,,,0.00,0.000000,,2013-12-09 06:00:00,
2013-12-08 23:42:00,-7.0,-13.0,-100.00,ESE,109,0.0,3.0,74,-99.99,,,0.00,0.000000,,2013-12-09 06:42:00,
2013-12-08 23:52:00,-7.0,-13.0,-100.00,ESE,109,0.0,3.0,74,-99.99,,,0.00,0.000000,,2013-12-09 06:52:00,